sensor_id;sensor_type;location;lat;lon;timestamp;pressure;altitude;pressure_sealevel;temperature;humidity
28935;BME280;16044;52.726;-2.108;2024-03-17T00:01:46;100491.94;;;10.36;100.00
28935;BME280;16044;52.726;-2.108;2024-03-17T00:04:15;100489.91;;;10.38;100.00
28935;BME280;16044;52.726;-2.108;2024-03-17T00:06:41;100478.59;;;10.34;100.00
28935;BME280;16044;52.726;-2.108;2024-03-17T00:09:13;100482.47;;;10.40;100.00
28935;BME280;16044;52.726;-2.108;2024-03-17T00:11:39;100477.72;;;10.42;100.00
28935;BME280;16044;52.726;-2.108;2024-03-17T00:14:09;100477.53;;;10.43;100.00
28935;BME280;16044;52.726;-2.108;2024-03-17T00:16:35;100463.81;;;10.45;100.00
28935;BME280;16044;52.726;-2.108;2024-03-17T00:19:05;100473.63;;;10.46;100.00
28935;BME280;16044;52.726;-2.108;2024-03-17T00:21:31;100478.00;;;10.47;100.00
28935;BME280;16044;52.726;-2.108;2024-03-17T00:24:00;100466.34;;;10.46;100.00
28935;BME280;16044;52.726;-2.108;2024-03-17T00:26:32;100467.19;;;10.47;100.00
28935;BME280;16044;52.726;-2.108;2024-03-17T00:29:00;100460.75;;;10.48;100.00
28935;BME280;16044;52.726;-2.108;2024-03-17T00:31:29;100456.34;;;10.47;100.00
28935;BME280;16044;52.726;-2.108;2024-03-17T00:33:57;100449.91;;;10.48;100.00
28935;BME280;16044;52.726;-2.108;2024-03-17T00:36:26;100449.91;;;10.48;100.00
28935;BME280;16044;52.726;-2.108;2024-03-17T00:38:53;100444.31;;;10.49;100.00
28935;BME280;16044;52.726;-2.108;2024-03-17T00:41:22;100444.66;;;10.46;100.00
28935;BME280;16044;52.726;-2.108;2024-03-17T00:43:52;100448.88;;;10.49;100.00
28935;BME280;16044;52.726;-2.108;2024-03-17T00:46:21;100447.88;;;10.50;100.00
28935;BME280;16044;52.726;-2.108;2024-03-17T00:48:48;100452.28;;;10.51;100.00
28935;BME280;16044;52.726;-2.108;2024-03-17T00:51:18;100448.53;;;10.52;100.00
28935;BME280;16044;52.726;-2.108;2024-03-17T00:53:44;100454.28;;;10.49;100.00
28935;BME280;16044;52.726;-2.108;2024-03-17T00:56:13;100452.94;;;10.53;100.00
28935;BME280;16044;52.726;-2.108;2024-03-17T00:58:40;100436.69;;;10.53;100.00
28935;BME280;16044;52.726;-2.108;2024-03-17T01:01:12;100439.38;;;10.53;100.00
28935;BME280;16044;52.726;-2.108;2024-03-17T01:03:39;100433.09;;;10.52;100.00
28935;BME280;16044;52.726;-2.108;2024-03-17T01:06:08;100437.69;;;10.52;100.00
28935;BME280;16044;52.726;-2.108;2024-03-17T01:08:35;100429.22;;;10.55;100.00
28935;BME280;16044;52.726;-2.108;2024-03-17T01:11:04;100417.34;;;10.56;100.00
28935;BME280;16044;52.726;-2.108;2024-03-17T01:13:34;100414.28;;;10.59;100.00
28935;BME280;16044;52.726;-2.108;2024-03-17T01:16:07;100411.56;;;10.59;100.00
28935;BME280;16044;52.726;-2.108;2024-03-17T01:18:36;100414.28;;;10.59;100.00
28935;BME280;16044;52.726;-2.108;2024-03-17T01:21:06;100414.94;;;10.61;100.00
28935;BME280;16044;52.726;-2.108;2024-03-17T01:23:32;100406.16;;;10.59;100.00
28935;BME280;16044;52.726;-2.108;2024-03-17T01:26:01;100405.78;;;10.62;100.00
28935;BME280;16044;52.726;-2.108;2024-03-17T01:28:28;100402.06;;;10.63;100.00
28935;BME280;16044;52.726;-2.108;2024-03-17T01:30:58;100399.34;;;10.63;100.00
28935;BME280;16044;52.726;-2.108;2024-03-17T01:33:24;100392.91;;;10.64;100.00
28935;BME280;16044;52.726;-2.108;2024-03-17T01:35:56;100385.44;;;10.66;100.00
28935;BME280;16044;52.726;-2.108;2024-03-17T01:38:23;100386.44;;;10.65;100.00
28935;BME280;16044;52.726;-2.108;2024-03-17T01:40:52;100386.44;;;10.65;100.00
28935;BME280;16044;52.726;-2.108;2024-03-17T01:43:21;100385.44;;;10.66;100.00
28935;BME280;16044;52.726;-2.108;2024-03-17T01:45:47;100379.63;;;10.69;100.00
28935;BME280;16044;52.726;-2.108;2024-03-17T01:48:16;100381.50;;;10.69;100.00
28935;BME280;16044;52.726;-2.108;2024-03-17T01:50:48;100377.31;;;10.66;100.00
28935;BME280;16044;52.726;-2.108;2024-03-17T01:53:18;100368.13;;;10.67;100.00
28935;BME280;16044;52.726;-2.108;2024-03-17T01:55:50;100371.50;;;10.69;100.00
28935;BME280;16044;52.726;-2.108;2024-03-17T01:58:17;100365.06;;;10.70;100.00
28935;BME280;16044;52.726;-2.108;2024-03-17T02:00:48;100368.78;;;10.69;100.00
28935;BME280;16044;52.726;-2.108;2024-03-17T02:03:15;100366.09;;;10.69;100.00
28935;BME280;16044;52.726;-2.108;2024-03-17T02:05:44;100368.44;;;10.72;100.00
28935;BME280;16044;52.726;-2.108;2024-03-17T02:08:11;100368.78;;;10.69;100.00
28935;BME280;16044;52.726;-2.108;2024-03-17T02:10:43;100365.91;;;10.71;100.00
28935;BME280;16044;52.726;-2.108;2024-03-17T02:13:09;100355.72;;;10.73;100.00
28935;BME280;16044;52.726;-2.108;2024-03-17T02:15:38;100360.13;;;10.74;100.00
28935;BME280;16044;52.726;-2.108;2024-03-17T02:18:05;100356.56;;;10.73;100.00
28935;BME280;16044;52.726;-2.108;2024-03-17T02:20:34;100349.47;;;10.72;100.00
28935;BME280;16044;52.726;-2.108;2024-03-17T02:23:18;100340.78;;;10.77;100.00
28935;BME280;16044;52.726;-2.108;2024-03-17T02:25:47;100343.97;;;10.81;100.00
28935;BME280;16044;52.726;-2.108;2024-03-17T02:28:16;100338.53;;;10.81;100.00
28935;BME280;16044;52.726;-2.108;2024-03-17T02:30:43;100334.16;;;10.80;100.00
28935;BME280;16044;52.726;-2.108;2024-03-17T02:33:12;100333.13;;;10.81;100.00
28935;BME280;16044;52.726;-2.108;2024-03-17T02:35:39;100331.47;;;10.80;100.00
28935;BME280;16044;52.726;-2.108;2024-03-17T02:38:09;100323.16;;;10.81;100.00
28935;BME280;16044;52.726;-2.108;2024-03-17T02:40:43;100321.28;;;10.82;100.00
28935;BME280;16044;52.726;-2.108;2024-03-17T02:43:12;100329.41;;;10.82;100.00
28935;BME280;16044;52.726;-2.108;2024-03-17T02:45:43;100322.28;;;10.81;100.00
28935;BME280;16044;52.726;-2.108;2024-03-17T02:48:13;100320.22;;;10.83;100.00
28935;BME280;16044;52.726;-2.108;2024-03-17T02:50:42;100324.63;;;10.84;100.00
28935;BME280;16044;52.726;-2.108;2024-03-17T02:53:11;100315.66;;;10.83;100.00
28935;BME280;16044;52.726;-2.108;2024-03-17T02:55:43;100309.75;;;10.80;100.00
28935;BME280;16044;52.726;-2.108;2024-03-17T02:58:15;100311.63;;;10.79;100.00
28935;BME280;16044;52.726;-2.108;2024-03-17T03:00:44;100307.72;;;10.82;100.00
28935;BME280;16044;52.726;-2.108;2024-03-17T03:03:13;100306.66;;;10.83;100.00
28935;BME280;16044;52.726;-2.108;2024-03-17T03:05:42;100299.19;;;10.85;100.00
28935;BME280;16044;52.726;-2.108;2024-03-17T03:08:11;100296.47;;;10.85;100.00
28935;BME280;16044;52.726;-2.108;2024-03-17T03:10:46;100299.00;;;10.86;100.00
28935;BME280;16044;52.726;-2.108;2024-03-17T03:13:15;100293.78;;;10.85;100.00
28935;BME280;16044;52.726;-2.108;2024-03-17T03:15:47;100301.72;;;10.86;100.00
28935;BME280;16044;52.726;-2.108;2024-03-17T03:18:16;100293.97;;;10.83;100.00
28935;BME280;16044;52.726;-2.108;2024-03-17T03:20:50;100282.56;;;10.88;100.00
28935;BME280;16044;52.726;-2.108;2024-03-17T03:23:20;100290.69;;;10.88;100.00
28935;BME280;16044;52.726;-2.108;2024-03-17T03:25:57;100283.63;;;10.87;100.00
28935;BME280;16044;52.726;-2.108;2024-03-17T03:28:30;100281.91;;;10.86;100.00
28935;BME280;16044;52.726;-2.108;2024-03-17T03:31:00;100272.75;;;10.87;100.00
28935;BME280;16044;52.726;-2.108;2024-03-17T03:33:30;100284.44;;;10.87;100.00
28935;BME280;16044;52.726;-2.108;2024-03-17T03:36:07;100279.84;;;10.88;100.00
28935;BME280;16044;52.726;-2.108;2024-03-17T03:38:37;100275.19;;;10.82;100.00
28935;BME280;16044;52.726;-2.108;2024-03-17T03:41:12;100270.72;;;10.89;100.00
28935;BME280;16044;52.726;-2.108;2024-03-17T03:43:42;100266.31;;;10.88;100.00
28935;BME280;16044;52.726;-2.108;2024-03-17T03:46:12;100271.06;;;10.86;100.00
28935;BME280;16044;52.726;-2.108;2024-03-17T03:48:41;100268.19;;;10.87;100.00
28935;BME280;16044;52.726;-2.108;2024-03-17T03:51:10;100261.91;;;10.87;100.00
28935;BME280;16044;52.726;-2.108;2024-03-17T03:53:39;100267.34;;;10.87;100.00
28935;BME280;16044;52.726;-2.108;2024-03-17T03:56:11;100265.00;;;10.84;100.00
28935;BME280;16044;52.726;-2.108;2024-03-17T03:58:41;100265.00;;;10.84;100.00
28935;BME280;16044;52.726;-2.108;2024-03-17T04:01:12;100266.22;;;10.81;100.00
28935;BME280;16044;52.726;-2.108;2024-03-17T04:03:47;100258.91;;;10.82;100.00
28935;BME280;16044;52.726;-2.108;2024-03-17T04:06:16;100270.75;;;10.81;100.00
28935;BME280;16044;52.726;-2.108;2024-03-17T04:08:46;100268.06;;;10.81;100.00
28935;BME280;16044;52.726;-2.108;2024-03-17T04:11:18;100267.03;;;10.82;100.00
28935;BME280;16044;52.726;-2.108;2024-03-17T04:13:47;100254.69;;;10.79;100.00
28935;BME280;16044;52.726;-2.108;2024-03-17T04:16:17;100262.16;;;10.77;100.00
28935;BME280;16044;52.726;-2.108;2024-03-17T04:18:47;100263.38;;;10.75;100.00
28935;BME280;16044;52.726;-2.108;2024-03-17T04:21:16;100256.25;;;10.73;100.00
28935;BME280;16044;52.726;-2.108;2024-03-17T04:23:47;100258.31;;;10.71;100.00
28935;BME280;16044;52.726;-2.108;2024-03-17T04:26:18;100249.53;;;10.69;100.00
28935;BME280;16044;52.726;-2.108;2024-03-17T04:28:47;100248.22;;;10.65;100.00
28935;BME280;16044;52.726;-2.108;2024-03-17T04:31:14;100242.31;;;10.62;100.00
28935;BME280;16044;52.726;-2.108;2024-03-17T04:33:43;100248.94;;;10.59;100.00
28935;BME280;16044;52.726;-2.108;2024-03-17T04:36:12;100244.34;;;10.60;100.00
28935;BME280;16044;52.726;-2.108;2024-03-17T04:38:43;100238.75;;;10.61;100.00
28935;BME280;16044;52.726;-2.108;2024-03-17T04:41:18;100235.22;;;10.61;100.00
28935;BME280;16044;52.726;-2.108;2024-03-17T04:43:46;100239.19;;;10.50;100.00
28935;BME280;16044;52.726;-2.108;2024-03-17T04:46:15;100236.50;;;10.50;100.00
28935;BME280;16044;52.726;-2.108;2024-03-17T04:48:45;100239.19;;;10.50;100.00
28935;BME280;16044;52.726;-2.108;2024-03-17T04:51:15;100237.16;;;10.52;100.00
28935;BME280;16044;52.726;-2.108;2024-03-17T04:53:45;100239.03;;;10.51;100.00
28935;BME280;16044;52.726;-2.108;2024-03-17T04:56:14;100232.78;;;10.51;100.00
28935;BME280;16044;52.726;-2.108;2024-03-17T04:58:45;100231.91;;;10.50;100.00
28935;BME280;16044;52.726;-2.108;2024-03-17T05:01:15;100231.06;;;10.50;100.00
28935;BME280;16044;52.726;-2.108;2024-03-17T05:03:44;100221.44;;;10.47;100.00
28935;BME280;16044;52.726;-2.108;2024-03-17T05:06:13;100218.53;;;10.49;100.00
28935;BME280;16044;52.726;-2.108;2024-03-17T05:08:42;100220.41;;;10.48;100.00
28935;BME280;16044;52.726;-2.108;2024-03-17T05:11:11;100219.75;;;10.46;100.00
28935;BME280;16044;52.726;-2.108;2024-03-17T05:13:41;100217.88;;;10.47;100.00
28935;BME280;16044;52.726;-2.108;2024-03-17T05:16:13;100219.75;;;10.46;100.00
28935;BME280;16044;52.726;-2.108;2024-03-17T05:18:43;100216.22;;;10.46;100.00
28935;BME280;16044;52.726;-2.108;2024-03-17T05:21:12;100219.56;;;10.48;100.00
28935;BME280;16044;52.726;-2.108;2024-03-17T05:23:41;100224.16;;;10.47;100.00
28935;BME280;16044;52.726;-2.108;2024-03-17T05:26:10;100218.91;;;10.46;100.00
28935;BME280;16044;52.726;-2.108;2024-03-17T05:28:39;100219.94;;;10.45;100.00
28935;BME280;16044;52.726;-2.108;2024-03-17T05:31:11;100221.25;;;10.49;100.00
28935;BME280;16044;52.726;-2.108;2024-03-17T05:33:44;100217.88;;;10.47;100.00
28935;BME280;16044;52.726;-2.108;2024-03-17T05:36:13;100222.47;;;10.46;100.00
28935;BME280;16044;52.726;-2.108;2024-03-17T05:38:45;100220.41;;;10.48;100.00
28935;BME280;16044;52.726;-2.108;2024-03-17T05:41:15;100221.63;;;10.46;100.00
28935;BME280;16044;52.726;-2.108;2024-03-17T05:43:44;100214.97;;;10.48;100.00
28935;BME280;16044;52.726;-2.108;2024-03-17T05:46:17;100219.56;;;10.48;100.00
28935;BME280;16044;52.726;-2.108;2024-03-17T05:48:46;100209.38;;;10.50;100.00
28935;BME280;16044;52.726;-2.108;2024-03-17T05:51:15;100212.94;;;10.50;100.00
28935;BME280;16044;52.726;-2.108;2024-03-17T05:53:44;100204.63;;;10.52;100.00
28935;BME280;16044;52.726;-2.108;2024-03-17T05:56:14;100203.97;;;10.50;100.00
28935;BME280;16044;52.726;-2.108;2024-03-17T05:58:44;100205.66;;;10.51;100.00
28935;BME280;16044;52.726;-2.108;2024-03-17T06:01:16;100205.47;;;10.52;100.00
28935;BME280;16044;52.726;-2.108;2024-03-17T06:03:47;100193.78;;;10.52;100.00
28935;BME280;16044;52.726;-2.108;2024-03-17T06:06:16;100192.13;;;10.51;100.00
28935;BME280;16044;52.726;-2.108;2024-03-17T06:08:45;100188.44;;;10.44;100.00
28935;BME280;16044;52.726;-2.108;2024-03-17T06:11:15;100187.88;;;10.48;100.00
28935;BME280;16044;52.726;-2.108;2024-03-17T06:13:44;100192.13;;;10.51;100.00
28935;BME280;16044;52.726;-2.108;2024-03-17T06:16:13;100193.97;;;10.50;100.00
28935;BME280;16044;52.726;-2.108;2024-03-17T06:18:45;100189.41;;;10.51;100.00
28935;BME280;16044;52.726;-2.108;2024-03-17T06:21:16;100191.44;;;10.49;100.00
28935;BME280;16044;52.726;-2.108;2024-03-17T06:23:45;100197.53;;;10.51;100.00
28935;BME280;16044;52.726;-2.108;2024-03-17T06:26:14;100189.59;;;10.49;100.00
28935;BME280;16044;52.726;-2.108;2024-03-17T06:28:43;100187.41;;;10.45;100.00
28935;BME280;16044;52.726;-2.108;2024-03-17T06:31:12;100193.78;;;10.52;100.00
28935;BME280;16044;52.726;-2.108;2024-03-17T06:33:41;100181.28;;;10.51;100.00
28935;BME280;16044;52.726;-2.108;2024-03-17T06:36:13;100185.47;;;10.53;100.00
28935;BME280;16044;52.726;-2.108;2024-03-17T06:38:43;100178.19;;;10.54;100.00
28935;BME280;16044;52.726;-2.108;2024-03-17T06:41:12;100175.47;;;10.54;100.00
28935;BME280;16044;52.726;-2.108;2024-03-17T06:43:42;100172.09;;;10.52;100.00
28935;BME280;16044;52.726;-2.108;2024-03-17T06:46:11;100172.09;;;10.52;100.00
28935;BME280;16044;52.726;-2.108;2024-03-17T06:48:40;100175.47;;;10.54;100.00
28935;BME280;16044;52.726;-2.108;2024-03-17T06:51:10;100167.16;;;10.56;100.00
28935;BME280;16044;52.726;-2.108;2024-03-17T06:53:41;100171.75;;;10.55;100.00
28935;BME280;16044;52.726;-2.108;2024-03-17T06:56:11;100163.41;;;10.57;100.00
28935;BME280;16044;52.726;-2.108;2024-03-17T06:58:40;100166.97;;;10.57;100.00
28935;BME280;16044;52.726;-2.108;2024-03-17T07:01:09;100173.72;;;10.61;100.00
28935;BME280;16044;52.726;-2.108;2024-03-17T07:03:39;100166.41;;;10.62;100.00
28935;BME280;16044;52.726;-2.108;2024-03-17T07:06:09;100169.31;;;10.60;100.00
28935;BME280;16044;52.726;-2.108;2024-03-17T07:08:41;100161.81;;;10.62;100.00
28935;BME280;16044;52.726;-2.108;2024-03-17T07:11:10;100160.53;;;10.58;100.00
28935;BME280;16044;52.726;-2.108;2024-03-17T07:13:39;100162.22;;;10.59;100.00
28935;BME280;16044;52.726;-2.108;2024-03-17T07:16:09;100158.00;;;10.57;100.00
28935;BME280;16044;52.726;-2.108;2024-03-17T07:18:38;100160.16;;;10.61;100.00
28935;BME280;16044;52.726;-2.108;2024-03-17T07:21:09;100161.00;;;10.62;100.00
28935;BME280;16044;52.726;-2.108;2024-03-17T07:23:41;100147.25;;;10.63;100.00
28935;BME280;16044;52.726;-2.108;2024-03-17T07:26:10;100152.69;;;10.63;100.00
28935;BME280;16044;52.726;-2.108;2024-03-17T07:28:40;100156.03;;;10.65;100.00
28935;BME280;16044;52.726;-2.108;2024-03-17T07:31:10;100154.38;;;10.64;100.00
28935;BME280;16044;52.726;-2.108;2024-03-17T07:33:40;100150.25;;;10.68;100.00
28935;BME280;16044;52.726;-2.108;2024-03-17T07:36:09;100144.44;;;10.71;100.00
28935;BME280;16044;52.726;-2.108;2024-03-17T07:38:41;100141.56;;;10.73;100.00
28935;BME280;16044;52.726;-2.108;2024-03-17T07:41:10;100136.97;;;10.73;100.00
28935;BME280;16044;52.726;-2.108;2024-03-17T07:43:39;100138.97;;;10.80;100.00
28935;BME280;16044;52.726;-2.108;2024-03-17T07:46:09;100133.34;;;10.81;100.00
28935;BME280;16044;52.726;-2.108;2024-03-17T07:48:40;100139.91;;;10.87;100.00
28935;BME280;16044;52.726;-2.108;2024-03-17T07:51:11;100132.59;;;10.87;100.00
28935;BME280;16044;52.726;-2.108;2024-03-17T07:53:46;100129.31;;;10.92;100.00
28935;BME280;16044;52.726;-2.108;2024-03-17T07:56:17;100140.81;;;10.94;100.00
28935;BME280;16044;52.726;-2.108;2024-03-17T07:58:47;100137.09;;;10.95;100.00
28935;BME280;16044;52.726;-2.108;2024-03-17T08:01:17;100128.56;;;10.98;100.00
28935;BME280;16044;52.726;-2.108;2024-03-17T08:03:47;100141.47;;;10.96;100.00
28935;BME280;16044;52.726;-2.108;2024-03-17T08:06:21;100132.69;;;10.94;100.00
28935;BME280;16044;52.726;-2.108;2024-03-17T08:08:53;100124.19;;;10.97;100.00
28935;BME280;16044;52.726;-2.108;2024-03-17T08:11:23;100120.63;;;10.97;100.00
28935;BME280;16044;52.726;-2.108;2024-03-17T08:13:53;100122.47;;;10.96;100.00
28935;BME280;16044;52.726;-2.108;2024-03-17T08:16:22;100114.34;;;10.96;100.00
28935;BME280;16044;52.726;-2.108;2024-03-17T08:18:51;100115.69;;;11.00;100.00
28935;BME280;16044;52.726;-2.108;2024-03-17T08:21:20;100122.78;;;11.01;100.00
28935;BME280;16044;52.726;-2.108;2024-03-17T08:23:52;100110.25;;;11.00;100.00
28935;BME280;16044;52.726;-2.108;2024-03-17T08:26:21;100110.63;;;10.97;100.00
28935;BME280;16044;52.726;-2.108;2024-03-17T08:28:51;100118.63;;;11.05;100.00
28935;BME280;16044;52.726;-2.108;2024-03-17T08:31:20;100117.22;;;11.09;100.00
28935;BME280;16044;52.726;-2.108;2024-03-17T08:33:49;100116.69;;;11.14;100.00
28935;BME280;16044;52.726;-2.108;2024-03-17T08:36:18;100119.38;;;11.14;100.00
28935;BME280;16044;52.726;-2.108;2024-03-17T08:38:48;100115.19;;;11.11;100.00
28935;BME280;16044;52.726;-2.108;2024-03-17T08:41:20;100113.97;;;11.14;100.00
28935;BME280;16044;52.726;-2.108;2024-03-17T08:43:49;100114.63;;;11.16;100.00
28935;BME280;16044;52.726;-2.108;2024-03-17T08:46:18;100114.78;;;11.15;100.00
28935;BME280;16044;52.726;-2.108;2024-03-17T08:48:48;100116.31;;;11.17;100.00
28935;BME280;16044;52.726;-2.108;2024-03-17T08:51:17;100119.84;;;11.18;100.00
28935;BME280;16044;52.726;-2.108;2024-03-17T08:53:46;100118.81;;;11.19;100.00
28935;BME280;16044;52.726;-2.108;2024-03-17T08:56:15;100117.78;;;11.20;100.00
28935;BME280;16044;52.726;-2.108;2024-03-17T08:58:48;100115.53;;;11.23;100.00
28935;BME280;16044;52.726;-2.108;2024-03-17T09:01:17;100112.66;;;11.25;100.00
28935;BME280;16044;52.726;-2.108;2024-03-17T09:03:47;100105.34;;;11.25;100.00
28935;BME280;16044;52.726;-2.108;2024-03-17T09:06:18;100126.84;;;11.27;100.00
28935;BME280;16044;52.726;-2.108;2024-03-17T09:08:47;100130.59;;;11.26;100.00
28935;BME280;16044;52.726;-2.108;2024-03-17T09:11:17;100149.69;;;11.32;100.00
28935;BME280;16044;52.726;-2.108;2024-03-17T09:13:53;100169.69;;;11.31;100.00
28935;BME280;16044;52.726;-2.108;2024-03-17T09:16:24;100191.69;;;11.37;100.00
28935;BME280;16044;52.726;-2.108;2024-03-17T09:18:56;100201.69;;;11.36;100.00
28935;BME280;16044;52.726;-2.108;2024-03-17T09:21:25;100215.44;;;11.35;100.00
28935;BME280;16044;52.726;-2.108;2024-03-17T09:23:54;100208.13;;;11.35;100.00
28935;BME280;16044;52.726;-2.108;2024-03-17T09:26:25;100194.84;;;11.40;100.00
28935;BME280;16044;52.726;-2.108;2024-03-17T09:28:57;100174.06;;;11.47;100.00
28935;BME280;16044;52.726;-2.108;2024-03-17T09:31:26;100174.13;;;11.54;100.00
28935;BME280;16044;52.726;-2.108;2024-03-17T09:33:56;100195.53;;;11.64;100.00
28935;BME280;16044;52.726;-2.108;2024-03-17T09:36:25;100196.19;;;11.66;100.00
28935;BME280;16044;52.726;-2.108;2024-03-17T09:38:54;100195.81;;;11.69;100.00
28935;BME280;16044;52.726;-2.108;2024-03-17T09:41:24;100197.13;;;11.73;100.00
28935;BME280;16044;52.726;-2.108;2024-03-17T09:43:58;100191.50;;;11.75;100.00
28935;BME280;16044;52.726;-2.108;2024-03-17T09:46:27;100199.28;;;11.78;100.00
28935;BME280;16044;52.726;-2.108;2024-03-17T09:48:57;100206.00;;;11.82;100.00
28935;BME280;16044;52.726;-2.108;2024-03-17T09:51:26;100211.03;;;11.85;100.00
28935;BME280;16044;52.726;-2.108;2024-03-17T09:53:55;100191.66;;;11.88;100.00
28935;BME280;16044;52.726;-2.108;2024-03-17T09:56:24;100205.72;;;11.92;100.00
28935;BME280;16044;52.726;-2.108;2024-03-17T09:58:56;100201.19;;;11.99;100.00
28935;BME280;16044;52.726;-2.108;2024-03-17T10:01:25;100197.06;;;12.03;100.00
28935;BME280;16044;52.726;-2.108;2024-03-17T10:03:55;100197.50;;;12.06;100.00
28935;BME280;16044;52.726;-2.108;2024-03-17T10:06:25;100197.56;;;12.13;100.00
28935;BME280;16044;52.726;-2.108;2024-03-17T10:08:57;100195.13;;;12.18;100.00
28935;BME280;16044;52.726;-2.108;2024-03-17T10:11:33;100182.81;;;12.22;100.00
28935;BME280;16044;52.726;-2.108;2024-03-17T10:14:06;100188.13;;;12.31;100.00
28935;BME280;16044;52.726;-2.108;2024-03-17T10:16:38;100186.44;;;12.29;100.00
28935;BME280;16044;52.726;-2.108;2024-03-17T10:19:11;100187.56;;;12.42;100.00
28935;BME280;16044;52.726;-2.108;2024-03-17T10:21:42;100180.31;;;12.49;100.00
28935;BME280;16044;52.726;-2.108;2024-03-17T10:24:19;100176.69;;;12.63;100.00
28935;BME280;16044;52.726;-2.108;2024-03-17T10:26:50;100174.16;;;12.62;100.00
28935;BME280;16044;52.726;-2.108;2024-03-17T10:29:25;100177.97;;;12.67;100.00
28935;BME280;16044;52.726;-2.108;2024-03-17T10:31:57;100175.06;;;12.76;100.00
28935;BME280;16044;52.726;-2.108;2024-03-17T10:34:29;100168.06;;;12.88;100.00
28935;BME280;16044;52.726;-2.108;2024-03-17T10:37:07;100170.22;;;12.99;100.00
28935;BME280;16044;52.726;-2.108;2024-03-17T10:39:39;100183.25;;;13.11;100.00
28935;BME280;16044;52.726;-2.108;2024-03-17T10:42:10;100174.53;;;13.22;100.00
28935;BME280;16044;52.726;-2.108;2024-03-17T10:44:42;100169.97;;;13.29;100.00
28935;BME280;16044;52.726;-2.108;2024-03-17T10:47:20;100158.97;;;13.44;100.00
28935;BME280;16044;52.726;-2.108;2024-03-17T10:49:51;100159.63;;;13.59;100.00
28935;BME280;16044;52.726;-2.108;2024-03-17T10:52:22;100154.03;;;13.74;100.00
28935;BME280;16044;52.726;-2.108;2024-03-17T10:54:55;100150.69;;;13.92;100.00
28935;BME280;16044;52.726;-2.108;2024-03-17T10:57:29;100160.59;;;14.07;100.00
28935;BME280;16044;52.726;-2.108;2024-03-17T11:00:05;100160.59;;;14.20;100.00
28935;BME280;16044;52.726;-2.108;2024-03-17T11:02:36;100159.34;;;14.22;100.00
28935;BME280;16044;52.726;-2.108;2024-03-17T11:05:14;100156.38;;;14.44;100.00
28935;BME280;16044;52.726;-2.108;2024-03-17T11:07:46;100157.84;;;14.53;100.00
28935;BME280;16044;52.726;-2.108;2024-03-17T11:10:19;100164.81;;;14.62;100.00
28935;BME280;16044;52.726;-2.108;2024-03-17T11:12:51;100165.66;;;14.70;100.00
28935;BME280;16044;52.726;-2.108;2024-03-17T11:15:40;100160.19;;;14.76;100.00
28935;BME280;16044;52.726;-2.108;2024-03-17T11:18:39;100165.00;;;14.81;100.00
28935;BME280;16044;52.726;-2.108;2024-03-17T11:21:22;100164.59;;;14.84;100.00
28935;BME280;16044;52.726;-2.108;2024-03-17T11:24:00;100175.47;;;14.91;100.00
28935;BME280;16044;52.726;-2.108;2024-03-17T11:26:30;100172.75;;;14.91;100.00
28935;BME280;16044;52.726;-2.108;2024-03-17T11:29:02;100171.50;;;14.87;100.00
28935;BME280;16044;52.726;-2.108;2024-03-17T11:31:43;100173.38;;;14.93;100.00
28935;BME280;16044;52.726;-2.108;2024-03-17T11:34:33;100175.66;;;15.02;100.00
28935;BME280;16044;52.726;-2.108;2024-03-17T11:37:05;100177.72;;;15.14;100.00
28935;BME280;16044;52.726;-2.108;2024-03-17T11:39:50;100180.03;;;15.24;100.00
28935;BME280;16044;52.726;-2.108;2024-03-17T11:42:27;100174.53;;;15.30;100.00
28935;BME280;16044;52.726;-2.108;2024-03-17T11:45:03;100175.53;;;15.43;100.00
28935;BME280;16044;52.726;-2.108;2024-03-17T11:47:40;100176.78;;;15.47;100.00
28935;BME280;16044;52.726;-2.108;2024-03-17T11:50:08;100173.44;;;15.45;100.00
28935;BME280;16044;52.726;-2.108;2024-03-17T11:52:38;100166.69;;;15.47;100.00
28935;BME280;16044;52.726;-2.108;2024-03-17T11:55:17;100167.31;;;15.49;100.00
28935;BME280;16044;52.726;-2.108;2024-03-17T11:57:55;100162.25;;;15.46;100.00
28935;BME280;16044;52.726;-2.108;2024-03-17T12:00:23;100161.25;;;15.40;100.00
28935;BME280;16044;52.726;-2.108;2024-03-17T12:02:55;100166.94;;;15.32;100.00
28935;BME280;16044;52.726;-2.108;2024-03-17T12:05:24;100168.88;;;15.25;100.00
28935;BME280;16044;52.726;-2.108;2024-03-17T12:07:53;100168.69;;;15.20;100.00
28935;BME280;16044;52.726;-2.108;2024-03-17T12:10:20;100163.91;;;15.09;100.00
28935;BME280;16044;52.726;-2.108;2024-03-17T12:12:49;100162.44;;;14.93;100.00
28935;BME280;16044;52.726;-2.108;2024-03-17T12:15:18;100158.69;;;14.94;100.00
28935;BME280;16044;52.726;-2.108;2024-03-17T12:17:54;100161.81;;;14.97;100.00
28935;BME280;16044;52.726;-2.108;2024-03-17T12:20:22;100165.81;;;15.01;100.00
28935;BME280;16044;52.726;-2.108;2024-03-17T12:22:52;100158.44;;;15.02;100.00
28935;BME280;16044;52.726;-2.108;2024-03-17T12:25:20;100166.63;;;15.02;100.00
28935;BME280;16044;52.726;-2.108;2024-03-17T12:27:52;100158.03;;;15.05;100.00
28935;BME280;16044;52.726;-2.108;2024-03-17T12:30:19;100153.59;;;15.04;100.00
28935;BME280;16044;52.726;-2.108;2024-03-17T12:32:49;100160.31;;;15.15;100.00
28935;BME280;16044;52.726;-2.108;2024-03-17T12:35:18;100155.88;;;15.14;100.00
28935;BME280;16044;52.726;-2.108;2024-03-17T12:37:48;100151.69;;;15.18;100.00
28935;BME280;16044;52.726;-2.108;2024-03-17T12:40:22;100153.56;;;15.17;100.00
28935;BME280;16044;52.726;-2.108;2024-03-17T12:42:55;100148.72;;;15.26;100.00
28935;BME280;16044;52.726;-2.108;2024-03-17T12:45:21;100152.06;;;15.35;100.00
28935;BME280;16044;52.726;-2.108;2024-03-17T12:47:51;100150.31;;;15.40;100.00